Map

Track Data

SID SEASON NUMBER BASIN SUBBASIN NAME ISO_TIME NATURE LAT LON WMO_WIND WMO_PRES WMO_AGENCY TRACK_TYPE DIST2LAND LANDFALL IFLAG USA_AGENCY USA_ATCF_ID USA_LAT USA_LON USA_RECORD USA_STATUS USA_WIND USA_PRES USA_SSHS USA_R34_NE USA_R34_SE USA_R34_SW USA_R34_NW USA_R50_NE USA_R50_SE USA_R50_SW USA_R50_NW USA_R64_NE USA_R64_SE USA_R64_SW USA_R64_NW USA_POCI USA_ROCI USA_RMW USA_EYE TOKYO_LAT TOKYO_LON TOKYO_GRADE TOKYO_WIND TOKYO_PRES TOKYO_R50_DIR TOKYO_R50_LONG TOKYO_R50_SHORT TOKYO_R30_DIR TOKYO_R30_LONG TOKYO_R30_SHORT TOKYO_LAND CMA_LAT CMA_LON CMA_CAT CMA_WIND CMA_PRES HKO_LAT HKO_LON HKO_CAT HKO_WIND HKO_PRES NEWDELHI_LAT NEWDELHI_LON NEWDELHI_GRADE NEWDELHI_WIND NEWDELHI_PRES NEWDELHI_CI NEWDELHI_DP NEWDELHI_POCI REUNION_LAT REUNION_LON REUNION_TYPE REUNION_WIND REUNION_PRES REUNION_TNUM REUNION_CI REUNION_RMW REUNION_R34_NE REUNION_R34_SE REUNION_R34_SW REUNION_R34_NW REUNION_R50_NE REUNION_R50_SE REUNION_R50_SW REUNION_R50_NW REUNION_R64_NE REUNION_R64_SE REUNION_R64_SW REUNION_R64_NW BOM_LAT BOM_LON BOM_TYPE BOM_WIND BOM_PRES BOM_TNUM BOM_CI BOM_RMW BOM_R34_NE BOM_R34_SE BOM_R34_SW BOM_R34_NW BOM_R50_NE BOM_R50_SE BOM_R50_SW BOM_R50_NW BOM_R64_NE BOM_R64_SE BOM_R64_SW BOM_R64_NW BOM_ROCI BOM_POCI BOM_EYE BOM_POS_METHOD BOM_PRES_METHOD NADI_LAT NADI_LON NADI_CAT NADI_WIND NADI_PRES WELLINGTON_LAT WELLINGTON_LON WELLINGTON_WIND WELLINGTON_PRES DS824_LAT DS824_LON DS824_STAGE DS824_WIND DS824_PRES TD9636_LAT TD9636_LON TD9636_STAGE TD9636_WIND TD9636_PRES TD9635_LAT TD9635_LON TD9635_WIND TD9635_PRES TD9635_ROCI NEUMANN_LAT NEUMANN_LON NEUMANN_CLASS NEUMANN_WIND NEUMANN_PRES MLC_LAT MLC_LON MLC_CLASS MLC_WIND MLC_PRES USA_GUST BOM_GUST BOM_GUST_PER REUNION_GUST REUNION_GUST_PER USA_SEAHGT USA_SEARAD_NE USA_SEARAD_SE USA_SEARAD_SW USA_SEARAD_NW STORM_SPEED STORM_DIR
1985280N18291 1985 97 NA CS ISABEL 1985-10-07 00:00:00 TS 17.8000 -69.2000 30 1006 hurdat_atl main 61 30 O_____________ hurdat_atl AL111985 17.8000 -69.2000 TD 30 1006 -1 15 294
1985280N18291 1985 97 NA CS ISABEL 1985-10-07 03:00:00 TS 18.0907 -69.8998 main 30 0 P_____________ AL111985 18.0907 -69.8998 TD 32 1006 -1 14 300
1985280N18291 1985 97 NA NA ISABEL 1985-10-07 06:00:00 TS 18.5000 -70.5000 35 1006 hurdat_atl main 0 0 O_____________ hurdat_atl AL111985 18.5000 -70.5000 TS 35 1006 0 14 316
1985280N18291 1985 97 NA NA ISABEL 1985-10-07 09:00:00 TS 19.1047 -70.9250 main 0 0 P_____________ AL111985 19.1047 -70.9250 TS 37 1006 0 15 333
1985280N18291 1985 97 NA NA ISABEL 1985-10-07 12:00:00 TS 19.8000 -71.2000 40 1006 hurdat_atl main 0 0 O_____________ hurdat_atl AL111985 19.8000 -71.2000 TS 40 1006 0 14 341
1985280N18291 1985 97 NA NA ISABEL 1985-10-07 15:00:00 TS 20.4499 -71.4249 main 67 67 P_____________ AL111985 20.4499 -71.4249 TS 40 1005 0 13 348
1985280N18291 1985 97 NA NA ISABEL 1985-10-07 18:00:00 TS 21.1000 -71.5000 40 1005 hurdat_atl main 145 145 O_____________ hurdat_atl AL111985 21.1000 -71.5000 TS 40 1005 0 13 2
1985280N18291 1985 97 NA NA ISABEL 1985-10-07 21:00:00 TS 21.7201 -71.3806 main 174 174 P_____________ AL111985 21.7201 -71.3806 TS 42 1005 0 13 12
1985280N18291 1985 97 NA NA ISABEL 1985-10-08 00:00:00 TS 22.4000 -71.2000 45 1005 hurdat_atl main 229 229 O_____________ hurdat_atl AL111985 22.4000 -71.2000 TS 45 1005 0 16 10
1985280N18291 1985 97 NA NA ISABEL 1985-10-08 03:00:00 TS 23.2649 -71.0978 main 305 305 P_____________ AL111985 23.2649 -71.0978 TS 47 1005 0 17 3
1985280N18291 1985 97 NA NA ISABEL 1985-10-08 06:00:00 TS 24.1000 -71.1000 50 1005 hurdat_atl main 378 378 O_____________ hurdat_atl AL111985 24.1000 -71.1000 TS 50 1005 0 14 354
1985280N18291 1985 97 NA NA ISABEL 1985-10-08 09:00:00 TS 24.6950 -71.2548 main 428 428 P_____________ AL111985 24.6950 -71.2548 TS 52 1004 0 12 342
1985280N18291 1985 97 NA NA ISABEL 1985-10-08 12:00:00 TS 25.2000 -71.5000 55 1003 hurdat_atl main 472 472 O_____________ hurdat_atl AL111985 25.2000 -71.5000 TS 55 1003 0 11 338
1985280N18291 1985 97 NA NA ISABEL 1985-10-08 15:00:00 TS 25.7574 -71.7204 main 530 528 P_____________ AL111985 25.7574 -71.7204 TS 57 1002 0 12 338
1985280N18291 1985 97 NA NA ISABEL 1985-10-08 18:00:00 TS 26.3000 -72.0000 60 1002 hurdat_atl main 578 578 O_____________ hurdat_atl AL111985 26.3000 -72.0000 TS 60 1002 0 12 332
1985280N18291 1985 97 NA NA ISABEL 1985-10-08 21:00:00 TS 26.8373 -72.3550 main 589 573 P_____________ AL111985 26.8373 -72.3550 TS 60 999 0 12 324
1985280N18291 1985 97 NA NA ISABEL 1985-10-09 00:00:00 TS 27.3000 -72.8000 60 997 hurdat_atl main 573 544 O_____________ hurdat_atl AL111985 27.3000 -72.8000 TS 60 997 0 12 314
1985280N18291 1985 97 NA NA ISABEL 1985-10-09 03:00:00 TS 27.6598 -73.3126 main 550 513 P_____________ AL111985 27.6598 -73.3126 TS 60 999 0 11 302
1985280N18291 1985 97 NA NA ISABEL 1985-10-09 06:00:00 TS 27.9000 -73.9000 60 1001 hurdat_atl main 513 475 O_____________ hurdat_atl AL111985 27.9000 -73.9000 TS 60 1001 0 11 289
1985280N18291 1985 97 NA NA ISABEL 1985-10-09 09:00:00 TS 28.0373 -74.5279 main 475 435 P_____________ AL111985 28.0373 -74.5279 TS 60 1002 0 12 280
1985280N18291 1985 97 NA NA ISABEL 1985-10-09 12:00:00 TS 28.1000 -75.2000 60 1003 hurdat_atl main 435 394 O_____________ hurdat_atl AL111985 28.1000 -75.2000 TS 60 1003 0 12 273
1985280N18291 1985 97 NA NA ISABEL 1985-10-09 15:00:00 TS 28.1050 -75.9086 main 394 369 P_____________ AL111985 28.1050 -75.9086 TS 60 1003 0 12 275
1985280N18291 1985 97 NA NA ISABEL 1985-10-09 18:00:00 TS 28.2000 -76.6000 60 1004 hurdat_atl main 369 322 O_____________ hurdat_atl AL111985 28.2000 -76.6000 TS 60 1004 0 12 293
1985280N18291 1985 97 NA NA ISABEL 1985-10-09 21:00:00 TS 28.5993 -77.1988 main 322 268 P_____________ AL111985 28.5993 -77.1988 TS 57 1004 0 13 307
1985280N18291 1985 97 NA NA ISABEL 1985-10-10 00:00:00 TS 29.0000 -77.8000 55 1005 hurdat_atl main 268 205 O_____________ hurdat_atl AL111985 29.0000 -77.8000 TS 55 1005 0 12 292
1985280N18291 1985 97 NA NA ISABEL 1985-10-10 03:00:00 TS 29.0727 -78.5090 main 205 143 P_____________ AL111985 29.0727 -78.5090 TS 50 1004 0 12 275
1985280N18291 1985 97 NA NA ISABEL 1985-10-10 06:00:00 TS 29.1000 -79.2000 45 1004 hurdat_atl main 143 106 O_____________ hurdat_atl AL111985 29.1000 -79.2000 TS 45 1004 0 12 282
1985280N18291 1985 97 NA NA ISABEL 1985-10-10 09:00:00 TS 29.3048 -79.8023 main 106 80 P_____________ AL111985 29.3048 -79.8023 TS 42 1005 0 11 298
1985280N18291 1985 97 NA NA ISABEL 1985-10-10 12:00:00 TS 29.6000 -80.3000 40 1006 hurdat_atl main 80 62 O_____________ hurdat_atl AL111985 29.6000 -80.3000 TS 40 1006 0 10 310
1985280N18291 1985 97 NA NA ISABEL 1985-10-10 15:00:00 TS 29.9462 -80.6673 main 58 44 P_____________ AL111985 29.9462 -80.6673 TS 37 1007 0 9 319
1985280N18291 1985 97 NA NA ISABEL 1985-10-10 18:00:00 TS 30.3000 -81.0000 35 1008 hurdat_atl main 44 9 O_____________ hurdat_atl AL111985 30.3000 -81.0000 TS 35 1008 0 9 316
1985280N18291 1985 97 NA NA ISABEL 1985-10-10 21:00:00 TS 30.6000 -81.4000 35 1008 hurdat_atl main 9 0 O_____________ hurdat_atl AL111985 30.6000 -81.4000 L TS 35 1008 0 8 310
1985280N18291 1985 97 NA NA ISABEL 1985-10-11 00:00:00 TS 30.8000 -81.7000 30 1009 hurdat_atl main 0 0 O_____________ hurdat_atl AL111985 30.8000 -81.7000 TD 30 1009 -1 6 321
1985280N18291 1985 97 NA NA ISABEL 1985-10-11 03:00:00 TS 31.0465 -81.8217 main 0 0 P_____________ AL111985 31.0465 -81.8217 TD 30 1010 -1 5 350
1985280N18291 1985 97 NA NA ISABEL 1985-10-11 06:00:00 TS 31.3000 -81.8000 30 1011 hurdat_atl main 0 0 O_____________ hurdat_atl AL111985 31.3000 -81.8000 TD 30 1011 -1 5 6
1985280N18291 1985 97 NA NA ISABEL 1985-10-11 09:00:00 TS 31.5298 -81.7601 main 0 0 P_____________ AL111985 31.5298 -81.7601 TD 27 1011 -1 4 23
1985280N18291 1985 97 NA NA ISABEL 1985-10-11 12:00:00 TS 31.7000 -81.6000 25 1012 hurdat_atl main 0 0 O_____________ hurdat_atl AL111985 31.7000 -81.6000 TD 25 1012 -1 5 59
1985280N18291 1985 97 NA NA ISABEL 1985-10-11 15:00:00 TS 31.7878 -81.2575 main 0 0 P_____________ AL111985 31.7878 -81.2575 TD 25 1012 -1 6 80
1985280N18291 1985 97 NA NA ISABEL 1985-10-11 18:00:00 TS 31.8000 -80.9000 25 1013 hurdat_atl main 11 11 O_____________ hurdat_atl AL111985 31.8000 -80.9000 TD 25 1013 -1 5 93
1985280N18291 1985 97 NA NA ISABEL 1985-10-11 21:00:00 TS 31.7648 -80.7199 main 21 21 P_____________ AL111985 31.7648 -80.7199 TD 25 1013 -1 3 111
1985280N18291 1985 97 NA NA ISABEL 1985-10-12 00:00:00 TS 31.7000 -80.6000 25 1013 hurdat_atl main 36 36 O_____________ hurdat_atl AL111985 31.7000 -80.6000 TD 25 1013 -1 3 117
1985280N18291 1985 97 NA NA ISABEL 1985-10-12 03:00:00 TS 31.6500 -80.4575 main 50 50 P_____________ AL111985 31.6500 -80.4575 TD 25 1013 -1 3 111
1985280N18291 1985 97 NA NA ISABEL 1985-10-12 06:00:00 TS 31.6000 -80.3000 25 1013 hurdat_atl main 65 65 O_____________ hurdat_atl AL111985 31.6000 -80.3000 TD 25 1013 -1 3 110
1985280N18291 1985 97 NA NA ISABEL 1985-10-12 09:00:00 TS 31.5425 -80.1075 main 87 87 P_____________ AL111985 31.5425 -80.1075 TD 25 1013 -1 4 106
1985280N18291 1985 97 NA NA ISABEL 1985-10-12 12:00:00 TS 31.5000 -79.9000 25 1014 hurdat_atl main 104 104 O_____________ hurdat_atl AL111985 31.5000 -79.9000 TD 25 1014 -1 4 101
1985280N18291 1985 97 NA NA ISABEL 1985-10-12 15:00:00 TS 31.4775 -79.7000 main 121 121 P_____________ AL111985 31.4775 -79.7000 TD 25 1013 -1 3 90
1985280N18291 1985 97 NA NA ISABEL 1985-10-12 18:00:00 TS 31.5000 -79.5000 25 1013 hurdat_atl main 131 129 O_____________ hurdat_atl AL111985 31.5000 -79.5000 TD 25 1013 -1 4 74
1985280N18291 1985 97 NA NA ISABEL 1985-10-12 21:00:00 TS 31.5775 -79.2925 main 129 125 P_____________ AL111985 31.5775 -79.2925 TD 25 1013 -1 4 60
1985280N18291 1985 97 NA NA ISABEL 1985-10-13 00:00:00 TS 31.7000 -79.1000 25 1013 hurdat_atl main 131 129 O_____________ hurdat_atl AL111985 31.7000 -79.1000 TD 25 1013 -1 4 48
1985280N18291 1985 97 NA NA ISABEL 1985-10-13 03:00:00 TS 31.8424 -78.9499 main 136 124 P_____________ AL111985 31.8424 -78.9499 TD 25 1013 -1 4 40
1985280N18291 1985 97 NA NA ISABEL 1985-10-13 06:00:00 TS 32.0000 -78.8000 25 1013 hurdat_atl main 124 119 O_____________ hurdat_atl AL111985 32.0000 -78.8000 TD 25 1013 -1 4 43
1985280N18291 1985 97 NA NA ISABEL 1985-10-13 09:00:00 TS 32.1500 -78.6075 main 116 114 P_____________ AL111985 32.1500 -78.6075 TD 25 1013 -1 5 48
1985280N18291 1985 97 NA NA ISABEL 1985-10-13 12:00:00 TS 32.3000 -78.4000 25 1013 hurdat_atl main 121 121 O_____________ hurdat_atl AL111985 32.3000 -78.4000 TD 25 1013 -1 5 49
1985280N18291 1985 97 NA NA ISABEL 1985-10-13 15:00:00 TS 32.4500 -78.1925 main 121 121 P_____________ AL111985 32.4500 -78.1925 TD 25 1012 -1 5 48
1985280N18291 1985 97 NA NA ISABEL 1985-10-13 18:00:00 TS 32.6000 -78.0000 25 1012 hurdat_atl main 130 130 O_____________ hurdat_atl AL111985 32.6000 -78.0000 TD 25 1012 -1 4 43
1985280N18291 1985 97 NA NA ISABEL 1985-10-13 21:00:00 TS 32.7498 -77.8648 main 133 113 P_____________ AL111985 32.7498 -77.8648 TD 25 1012 -1 4 40
1985280N18291 1985 97 NA NA ISABEL 1985-10-14 00:00:00 TS 32.9000 -77.7000 25 1012 hurdat_atl main 114 106 O_____________ hurdat_atl AL111985 32.9000 -77.7000 TD 25 1012 -1 5 52
1985280N18291 1985 97 NA NA ISABEL 1985-10-14 03:00:00 TS 33.0501 -77.4150 main 105 105 P_____________ AL111985 33.0501 -77.4150 TD 25 1011 -1 6 59
1985280N18291 1985 97 NA NA ISABEL 1985-10-14 06:00:00 TS 33.2000 -77.1000 25 1011 hurdat_atl main 114 114 O_____________ hurdat_atl AL111985 33.2000 -77.1000 TD 25 1011 -1 6 57
1985280N18291 1985 97 NA NA ISABEL 1985-10-14 09:00:00 TS 33.3574 -76.8499 main 124 124 P_____________ AL111985 33.3574 -76.8499 TD 25 1010 -1 5 54
1985280N18291 1985 97 NA NA ISABEL 1985-10-14 12:00:00 TS 33.5000 -76.6000 25 1010 hurdat_atl main 133 122 O_____________ hurdat_atl AL111985 33.5000 -76.6000 TD 25 1010 -1 5 60
1985280N18291 1985 97 NA NA ISABEL 1985-10-14 15:00:00 TS 33.6074 -76.3223 main 123 114 P_____________ AL111985 33.6074 -76.3223 TD 25 1010 -1 5 68
1985280N18291 1985 97 NA NA ISABEL 1985-10-14 18:00:00 TS 33.7000 -76.0000 25 1010 hurdat_atl main 120 120 O_____________ hurdat_atl AL111985 33.7000 -76.0000 TD 25 1010 -1 6 75
1985280N18291 1985 97 NA NA ISABEL 1985-10-14 21:00:00 TS 33.7547 -75.6440 main 129 129 P_____________ AL111985 33.7547 -75.6440 TD 25 1010 -1 7 73
1985280N18291 1985 97 NA NA ISABEL 1985-10-15 00:00:00 TS 33.9000 -75.2000 25 1010 hurdat_atl main 148 148 O_____________ hurdat_atl AL111985 33.9000 -75.2000 TD 25 1010 -1 10 60
1985280N18291 1985 97 NA NA ISABEL 1985-10-15 03:00:00 TS 34.2325 -74.6374 main 173 169 P_____________ AL111985 34.2325 -74.6374 TD 25 1010 -1 13 51
1985280N18291 1985 97 NA NA ISABEL 1985-10-15 06:00:00 TS 34.7000 -74.0000 25 1010 hurdat_atl main 183 182 O_____________ hurdat_atl AL111985 34.7000 -74.0000 TD 25 1010 -1 15 47
1985280N18291 1985 97 NA NA ISABEL 1985-10-15 09:00:00 TS 35.2355 -73.3517 main 201 201 P_____________ AL111985 35.2355 -73.3517 TD 25 1010 -1 15 44
1985280N18291 1985 97 NA NA ISABEL 1985-10-15 12:00:00 TS 35.8000 -72.7000 25 1010 hurdat_atl main 251 O_____________ hurdat_atl AL111985 35.8000 -72.7000 TD 25 1010 -1 15 43

About IBTrACS Database

This database is a web-friendly format of International Best Track Archive for Climate Stewardship (IBTrACS), a global best track data archive curated by NOAA dating back to 1842.

Updated: 2021-11-26